Time;durP1;ratioP1;P1;durP2;ratioP2;P2;SDS_P1;SDS_P2;PMS_P1;PMS_P2;Temp;Humidity;BMP_temperature;BMP_pressure;BME280_temperature;BME280_humidity;BME280_pressure;Samples;Min_cycle;Max_cycle;Signal;HPM_P1;HPM_P2
2024/04/06 00:01:18;;;;;;;0.30;0.30;;;13.80;87.90;;;;;;5095519;28;20554;-76
2024/04/06 00:03:44;;;;;;;0.50;0.50;;;13.80;88.00;;;;;;5095373;28;20036;-77
2024/04/06 00:06:10;;;;;;;0.30;0.30;;;13.80;88.20;;;;;;5076956;28;20465;-75
2024/04/06 00:08:35;;;;;;;0.32;0.32;;;13.70;88.40;;;;;;5078084;28;20043;-76
2024/04/06 00:11:01;;;;;;;0.40;0.40;;;13.70;88.50;;;;;;5095218;28;20036;-77
2024/04/06 00:13:27;;;;;;;0.50;0.50;;;13.70;88.70;;;;;;5113499;28;20043;-75
2024/04/06 00:15:52;;;;;;;0.32;0.30;;;13.70;88.80;;;;;;5095585;28;20137;-76
2024/04/06 00:18:18;;;;;;;0.30;0.30;;;13.60;88.90;;;;;;5113467;28;20078;-76
2024/04/06 00:20:44;;;;;;;1.23;0.47;;;13.60;89.10;;;;;;5113379;28;20515;-77
2024/04/06 00:23:09;;;;;;;0.63;0.40;;;13.50;89.10;;;;;;5094706;28;20047;-76
2024/04/06 00:25:35;;;;;;;0.52;0.50;;;13.50;89.20;;;;;;5095347;28;20087;-76
2024/04/06 00:28:01;;;;;;;0.30;0.28;;;13.50;89.40;;;;;;5077924;28;20067;-77
2024/04/06 00:30:26;;;;;;;0.30;0.30;;;13.40;89.50;;;;;;5113493;28;20066;-75
2024/04/06 00:32:52;;;;;;;0.30;0.30;;;13.40;89.60;;;;;;5113048;28;20036;-75
2024/04/06 00:35:18;;;;;;;0.40;0.40;;;13.40;89.80;;;;;;5113016;28;20516;-76
2024/04/06 00:37:44;;;;;;;0.30;0.30;;;13.30;89.80;;;;;;5095022;28;20036;-76
2024/04/06 00:40:10;;;;;;;0.40;0.40;;;13.30;89.90;;;;;;5094623;28;20047;-76
2024/04/06 00:42:36;;;;;;;0.30;0.30;;;13.30;89.90;;;;;;5094519;28;20028;-76
2024/04/06 00:45:03;;;;;;;0.30;0.30;;;13.30;90.00;;;;;;5096488;28;20040;-76
2024/04/06 00:47:28;;;;;;;0.30;0.30;;;13.30;90.00;;;;;;5092758;28;20031;-77
2024/04/06 00:50:28;;;;;;;0.30;0.30;;;13.40;90.00;;;;;;5095186;28;20180;-77
2024/04/06 00:53:19;;;;;;;0.47;0.40;;;13.30;90.00;;;;;;5085796;28;20062;-76
2024/04/06 00:55:54;;;;;;;0.47;0.30;;;13.30;90.00;;;;;;5112171;28;20044;-76
2024/04/06 00:58:20;;;;;;;0.25;0.25;;;13.40;90.00;;;;;;5029430;28;20099;-76
2024/04/06 01:01:36;;;;;;;0.50;0.32;;;13.40;89.90;;;;;;4995605;28;20038;-77
2024/04/06 01:04:40;;;;;;;0.22;0.22;;;13.50;89.90;;;;;;5028994;28;20052;-76
2024/04/06 01:07:05;;;;;;;0.57;0.30;;;13.60;89.80;;;;;;4996018;28;20057;-77
2024/04/06 01:10:09;;;;;;;0.73;0.35;;;13.80;89.60;;;;;;5029783;28;20044;-78
2024/04/06 01:13:24;;;;;;;1.00;0.28;;;13.80;89.40;;;;;;5014254;28;20094;-77
2024/04/06 01:15:49;;;;;;;;;;;13.80;89.20;;;;;;5027140;28;20140;-77
2024/04/06 01:18:15;;;;;;;0.47;0.28;;;13.80;89.00;;;;;;5013245;28;20039;-76
2024/04/06 01:20:43;;;;;;;0.40;0.20;;;13.90;89.10;;;;;;4997313;28;20465;-76
2024/04/06 01:23:11;;;;;;;0.20;0.20;;;13.90;89.10;;;;;;4997176;28;20483;-76
2024/04/06 01:25:39;;;;;;;1.15;0.40;;;13.90;89.00;;;;;;4995850;28;20046;-77
2024/04/06 01:28:05;;;;;;;1.00;0.40;;;14.00;89.10;;;;;;4981407;28;20041;-77
2024/04/06 01:30:31;;;;;;;0.82;0.40;;;14.00;89.10;;;;;;5093909;28;20461;-76
2024/04/06 01:32:57;;;;;;;0.63;0.30;;;14.00;89.20;;;;;;5094123;28;20539;-77
2024/04/06 01:35:24;;;;;;;0.30;0.30;;;14.00;89.20;;;;;;5077629;28;20042;-77
2024/04/06 01:37:50;;;;;;;0.43;0.38;;;14.00;89.30;;;;;;5111992;28;20537;-77
2024/04/06 01:40:16;;;;;;;0.60;0.20;;;14.10;89.50;;;;;;5077025;28;20096;-76
2024/04/06 01:42:42;;;;;;;0.85;0.40;;;14.00;89.60;;;;;;5093975;28;20507;-77
2024/04/06 01:45:08;;;;;;;0.73;0.30;;;14.10;89.60;;;;;;5060129;28;20067;-77
2024/04/06 01:47:34;;;;;;;0.40;0.40;;;14.10;89.60;;;;;;5094377;28;20040;-77
2024/04/06 01:50:03;;;;;;;1.10;0.30;;;14.00;89.60;;;;;;5076648;28;20039;-76
2024/04/06 01:52:28;;;;;;;0.95;0.30;;;14.00;89.60;;;;;;5060635;28;20031;-77
2024/04/06 01:54:54;;;;;;;0.60;0.40;;;14.00;89.70;;;;;;5077224;28;20040;-77
2024/04/06 01:57:20;;;;;;;0.50;0.38;;;14.00;89.80;;;;;;5059916;28;20404;-77
2024/04/06 01:59:46;;;;;;;0.40;0.35;;;14.00;89.90;;;;;;5093543;28;20054;-77
2024/04/06 02:02:13;;;;;;;0.50;0.28;;;14.00;90.00;;;;;;5093798;28;20045;-77
2024/04/06 02:04:40;;;;;;;0.43;0.40;;;14.00;90.00;;;;;;5076754;28;20114;-77
2024/04/06 02:07:06;;;;;;;0.28;0.28;;;14.00;90.00;;;;;;5076971;28;20044;-77
2024/04/06 02:09:32;;;;;;;0.20;0.20;;;14.00;90.10;;;;;;5077152;28;20431;-77
2024/04/06 02:11:58;;;;;;;0.20;0.20;;;14.00;90.10;;;;;;5077565;28;20050;-78
2024/04/06 02:14:24;;;;;;;0.40;0.30;;;13.90;90.10;;;;;;5097262;28;20491;-78
2024/04/06 02:16:49;;;;;;;0.38;0.30;;;14.00;90.20;;;;;;5079732;28;20544;-77
2024/04/06 02:19:15;;;;;;;0.38;0.38;;;13.90;90.10;;;;;;5080590;28;20052;-76
2024/04/06 02:21:41;;;;;;;0.40;0.40;;;14.00;90.20;;;;;;5079911;28;20103;-77
2024/04/06 02:24:06;;;;;;;0.20;0.20;;;13.90;90.20;;;;;;5063158;28;20043;-76
2024/04/06 02:26:32;;;;;;;0.55;0.47;;;13.90;90.20;;;;;;5115078;28;20047;-76
2024/04/06 02:28:58;;;;;;;0.52;0.32;;;13.90;90.20;;;;;;5033212;28;20041;-77
2024/04/06 02:31:23;;;;;;;0.30;0.30;;;13.90;90.30;;;;;;5018949;28;20049;-77
2024/04/06 02:33:49;;;;;;;0.40;0.28;;;13.90;90.30;;;;;;5035722;28;20073;-77
2024/04/06 02:36:15;;;;;;;0.30;0.30;;;13.90;90.30;;;;;;5035704;28;20049;-77
2024/04/06 02:38:42;;;;;;;0.35;0.35;;;13.90;90.40;;;;;;5035273;28;20045;-76
2024/04/06 02:41:08;;;;;;;0.65;0.40;;;13.90;90.40;;;;;;5035548;28;20598;-76
2024/04/06 02:43:34;;;;;;;0.30;0.30;;;13.90;90.40;;;;;;5052351;28;20195;-77
2024/04/06 02:46:00;;;;;;;0.38;0.30;;;13.80;90.30;;;;;;5018711;28;20620;-76
2024/04/06 02:48:25;;;;;;;0.73;0.40;;;13.90;90.40;;;;;;5035195;28;20115;-76
2024/04/06 02:50:51;;;;;;;0.60;0.30;;;14.00;90.30;;;;;;5018749;28;20084;-77
2024/04/06 02:53:17;;;;;;;0.88;0.50;;;14.00;90.30;;;;;;5018709;28;20068;-76
2024/04/06 02:55:42;;;;;;;0.35;0.35;;;14.00;90.30;;;;;;5035183;28;20060;-77
2024/04/06 02:58:08;;;;;;;0.68;0.30;;;14.00;90.30;;;;;;5051417;28;20048;-77
2024/04/06 03:00:37;;;;;;;0.95;0.40;;;14.00;90.30;;;;;;5098602;28;20038;-76
2024/04/06 03:03:03;;;;;;;0.28;0.28;;;14.00;90.30;;;;;;5094335;28;20100;-76
2024/04/06 03:05:30;;;;;;;0.65;0.32;;;14.00;90.30;;;;;;5079349;28;20134;-77
2024/04/06 03:07:56;;;;;;;0.20;0.20;;;13.90;90.30;;;;;;5079272;28;20031;-76
2024/04/06 03:10:21;;;;;;;0.52;0.30;;;14.00;90.30;;;;;;5079250;28;20481;-76
2024/04/06 03:12:47;;;;;;;0.30;0.30;;;14.00;90.60;;;;;;5062724;28;20070;-76
2024/04/06 03:15:13;;;;;;;0.30;0.30;;;14.00;90.40;;;;;;5079272;28;20042;-76
2024/04/06 03:17:38;;;;;;;0.35;0.35;;;13.90;90.40;;;;;;5078859;28;20036;-77
2024/04/06 03:20:04;;;;;;;0.43;0.32;;;13.80;90.40;;;;;;5079417;28;20047;-76
2024/04/06 03:22:31;;;;;;;0.30;0.30;;;13.80;90.50;;;;;;5062230;28;20492;-76
2024/04/06 03:24:57;;;;;;;0.50;0.35;;;13.80;90.50;;;;;;5114153;28;20031;-76
2024/04/06 03:27:23;;;;;;;0.40;0.40;;;13.80;90.60;;;;;;5114508;28;20429;-76
2024/04/06 03:29:49;;;;;;;0.30;0.30;;;13.70;90.60;;;;;;5114030;28;20082;-76
2024/04/06 03:32:14;;;;;;;0.38;0.38;;;13.70;90.60;;;;;;5096159;28;20048;-76
2024/04/06 03:34:40;;;;;;;0.43;0.40;;;13.60;90.70;;;;;;5059606;28;20039;-76
2024/04/06 03:37:07;;;;;;;0.52;0.50;;;13.60;90.70;;;;;;5095942;28;20499;-76
2024/04/06 03:39:32;;;;;;;0.45;0.30;;;13.50;90.80;;;;;;5095323;28;20054;-76
2024/04/06 03:41:59;;;;;;;0.20;0.20;;;13.50;90.80;;;;;;5095297;28;20122;-76
2024/04/06 03:44:25;;;;;;;0.25;0.25;;;13.50;90.80;;;;;;5061840;28;20032;-76
2024/04/06 03:46:53;;;;;;;0.43;0.30;;;13.50;90.90;;;;;;5078511;28;20039;-76
2024/04/06 03:49:19;;;;;;;0.30;0.30;;;13.40;90.80;;;;;;5061745;28;20051;-76
2024/04/06 03:51:47;;;;;;;0.57;0.43;;;13.30;90.90;;;;;;5095730;28;20047;-76
2024/04/06 03:54:13;;;;;;;0.30;0.30;;;13.40;90.90;;;;;;5078267;28;20089;-76
2024/04/06 03:56:39;;;;;;;0.30;0.30;;;13.30;90.90;;;;;;5095922;28;20469;-76
2024/04/06 03:59:06;;;;;;;0.20;0.20;;;13.30;90.90;;;;;;5095887;28;20036;-76
2024/04/06 04:01:31;;;;;;;0.20;0.20;;;13.20;91.00;;;;;;5113643;28;20040;-76
2024/04/06 04:03:57;;;;;;;0.40;0.40;;;13.10;91.00;;;;;;5078619;28;20032;-76
2024/04/06 04:06:23;;;;;;;0.28;0.28;;;13.10;91.00;;;;;;5095268;28;20031;-76
2024/04/06 04:08:48;;;;;;;0.20;0.20;;;13.00;91.10;;;;;;5078750;28;20049;-76
2024/04/06 04:11:14;;;;;;;0.30;0.30;;;13.00;91.10;;;;;;5078358;28;20122;-76
2024/04/06 04:13:40;;;;;;;0.30;0.30;;;12.90;91.10;;;;;;5078320;28;20043;-76
2024/04/06 04:16:06;;;;;;;0.50;0.30;;;12.90;91.10;;;;;;5095117;28;20040;-76
2024/04/06 04:18:32;;;;;;;0.52;0.35;;;12.90;91.20;;;;;;5078212;28;20044;-76
2024/04/06 04:20:57;;;;;;;0.30;0.30;;;12.80;91.20;;;;;;5113646;28;20036;-76
2024/04/06 04:23:23;;;;;;;0.90;0.40;;;12.80;91.20;;;;;;5061483;28;20032;-75
2024/04/06 04:25:49;;;;;;;0.22;0.22;;;12.80;91.20;;;;;;5078099;28;20035;-76
2024/04/06 04:28:14;;;;;;;0.38;0.38;;;12.70;91.20;;;;;;5113424;28;20485;-76
2024/04/06 04:30:41;;;;;;;0.25;0.25;;;12.80;91.20;;;;;;5095022;28;20520;-76
2024/04/06 04:33:07;;;;;;;0.55;0.50;;;12.70;91.20;;;;;;5095253;28;20481;-76
2024/04/06 04:35:33;;;;;;;0.40;0.40;;;12.70;91.20;;;;;;5112186;28;20031;-77
2024/04/06 04:37:59;;;;;;;0.30;0.30;;;12.70;91.20;;;;;;5094856;28;20447;-76
2024/04/06 04:40:25;;;;;;;0.40;0.40;;;12.70;91.20;;;;;;5094949;28;20065;-76
2024/04/06 04:42:51;;;;;;;0.20;0.20;;;12.60;91.20;;;;;;5077790;28;20500;-76
2024/04/06 04:45:17;;;;;;;0.30;0.30;;;12.60;91.20;;;;;;5078126;28;20039;-76
2024/04/06 04:47:42;;;;;;;0.30;0.30;;;12.60;91.20;;;;;;5094769;28;20043;-76
2024/04/06 04:50:09;;;;;;;0.55;0.47;;;12.60;91.20;;;;;;5061079;28;20043;-76
2024/04/06 04:52:35;;;;;;;0.63;0.30;;;12.60;91.20;;;;;;5112885;28;20370;-76
2024/04/06 04:55:02;;;;;;;0.30;0.30;;;12.60;91.30;;;;;;5078081;28;20039;-76
2024/04/06 04:57:29;;;;;;;0.68;0.38;;;12.60;91.30;;;;;;5077953;28;20509;-76
2024/04/06 04:59:54;;;;;;;0.63;0.45;;;12.60;91.30;;;;;;5112861;28;20054;-77
2024/04/06 05:02:20;;;;;;;0.90;0.43;;;12.60;91.30;;;;;;5077385;28;20039;-76
2024/04/06 05:04:46;;;;;;;0.43;0.43;;;12.60;91.20;;;;;;5077581;28;20043;-76
2024/04/06 05:07:12;;;;;;;0.50;0.50;;;12.70;91.30;;;;;;5094703;28;20092;-76
2024/04/06 05:09:38;;;;;;;0.60;0.50;;;12.70;91.30;;;;;;5094283;28;20043;-76
2024/04/06 05:12:03;;;;;;;0.70;0.45;;;12.60;91.20;;;;;;5077385;28;20043;-77
2024/04/06 05:14:29;;;;;;;0.73;0.50;;;12.70;91.20;;;;;;5060816;28;20108;-77
2024/04/06 05:16:55;;;;;;;0.50;0.35;;;12.70;91.20;;;;;;5077424;28;20414;-76
2024/04/06 05:19:21;;;;;;;0.85;0.40;;;12.80;91.20;;;;;;5094606;28;20070;-77
2024/04/06 05:21:47;;;;;;;0.65;0.40;;;12.80;91.10;;;;;;5060910;28;20050;-76
2024/04/06 05:24:13;;;;;;;0.30;0.30;;;12.80;91.10;;;;;;5077254;28;20481;-77
2024/04/06 05:26:41;;;;;;;0.50;0.40;;;12.80;91.10;;;;;;5112417;28;20557;-76
2024/04/06 05:29:08;;;;;;;0.32;0.30;;;12.80;91.10;;;;;;5094207;28;20039;-76
2024/04/06 05:31:34;;;;;;;0.40;0.40;;;12.80;91.10;;;;;;5094154;28;20046;-76
2024/04/06 05:34:00;;;;;;;0.68;0.47;;;12.80;91.10;;;;;;5077492;28;20493;-76
2024/04/06 05:36:26;;;;;;;0.30;0.30;;;12.80;91.10;;;;;;5112576;28;20036;-76
2024/04/06 05:38:51;;;;;;;0.60;0.30;;;12.80;91.10;;;;;;5060638;28;20043;-76
2024/04/06 05:41:17;;;;;;;0.40;0.25;;;12.80;91.10;;;;;;5112411;28;20039;-77
2024/04/06 05:43:43;;;;;;;0.25;0.25;;;12.80;91.10;;;;;;5094012;28;20070;-76
2024/04/06 05:46:08;;;;;;;0.52;0.22;;;12.80;91.10;;;;;;5094650;28;20061;-76
2024/04/06 05:48:34;;;;;;;1.17;0.52;;;12.80;91.10;;;;;;5079911;28;20096;-76
2024/04/06 05:51:00;;;;;;;0.47;0.30;;;12.90;91.10;;;;;;5080533;28;20044;-76
2024/04/06 05:53:26;;;;;;;0.40;0.40;;;12.90;91.10;;;;;;5097546;28;20046;-76
2024/04/06 05:55:55;;;;;;;0.10;0.10;;;12.80;91.10;;;;;;5097513;28;20043;-76
2024/04/06 05:58:20;;;;;;;0.30;0.30;;;12.80;91.10;;;;;;5079934;28;20039;-77
2024/04/06 06:00:47;;;;;;;0.30;0.30;;;12.90;91.20;;;;;;5062079;28;20499;-76
2024/04/06 06:03:13;;;;;;;0.40;0.40;;;12.80;91.20;;;;;;5080997;28;20484;-76
2024/04/06 06:05:38;;;;;;;0.35;0.35;;;12.80;91.20;;;;;;5063706;28;20055;-76
2024/04/06 06:08:04;;;;;;;0.40;0.40;;;12.90;91.20;;;;;;5080702;28;20047;-76
2024/04/06 06:10:30;;;;;;;0.40;0.40;;;12.80;91.20;;;;;;5097844;28;20036;-76
2024/04/06 06:12:57;;;;;;;0.40;0.40;;;12.90;91.50;;;;;;5115631;28;20062;-76
2024/04/06 06:15:23;;;;;;;0.82;0.40;;;13.00;91.20;;;;;;5115959;28;20031;-76
2024/04/06 06:17:48;;;;;;;0.40;0.40;;;13.00;91.10;;;;;;5097471;28;20050;-76
2024/04/06 06:20:14;;;;;;;0.30;0.30;;;13.10;91.10;;;;;;5097143;28;20059;-76
2024/04/06 06:22:40;;;;;;;0.45;0.30;;;13.20;91.00;;;;;;5080051;28;20040;-75
2024/04/06 06:25:05;;;;;;;0.40;0.40;;;13.20;90.90;;;;;;5096780;28;20126;-76
2024/04/06 06:27:32;;;;;;;0.40;0.40;;;13.30;90.90;;;;;;5080071;28;20089;-75
2024/04/06 06:29:59;;;;;;;0.32;0.32;;;13.30;90.90;;;;;;5097711;28;20051;-76
2024/04/06 06:32:26;;;;;;;0.32;0.30;;;13.30;90.90;;;;;;5063285;28;20051;-76
2024/04/06 06:34:51;;;;;;;0.95;0.30;;;13.30;90.90;;;;;;5114960;28;20489;-76
2024/04/06 06:37:17;;;;;;;0.32;0.32;;;13.30;90.90;;;;;;5115042;28;20050;-76
2024/04/06 06:39:43;;;;;;;0.43;0.40;;;13.30;90.90;;;;;;5063068;28;20035;-76
2024/04/06 06:42:09;;;;;;;0.40;0.40;;;13.40;90.90;;;;;;5063440;28;20040;-76
2024/04/06 06:44:35;;;;;;;0.55;0.50;;;13.50;90.90;;;;;;5096620;28;20404;-75
2024/04/06 06:47:02;;;;;;;0.40;0.40;;;13.60;90.90;;;;;;5079786;28;20043;-76
2024/04/06 06:49:27;;;;;;;0.77;0.43;;;13.70;90.80;;;;;;5080095;28;20043;-75
2024/04/06 06:51:54;;;;;;;0.40;0.40;;;13.80;90.70;;;;;;5079936;28;20044;-76
2024/04/06 06:54:19;;;;;;;0.50;0.40;;;13.90;90.60;;;;;;5079556;28;20028;-76
2024/04/06 06:56:45;;;;;;;1.35;0.50;;;13.90;90.50;;;;;;5115039;28;20047;-76
2024/04/06 06:59:11;;;;;;;0.30;0.30;;;13.90;90.40;;;;;;5113796;28;20031;-76
2024/04/06 07:01:36;;;;;;;0.60;0.40;;;14.00;90.40;;;;;;5096370;28;20058;-76
2024/04/06 07:04:02;;;;;;;0.55;0.38;;;14.00;90.40;;;;;;5097028;28;20036;-76
2024/04/06 07:06:28;;;;;;;0.35;0.30;;;14.10;90.50;;;;;;5096218;28;20048;-76
2024/04/06 07:08:53;;;;;;;0.45;0.38;;;14.10;90.40;;;;;;5114710;28;20043;-76
2024/04/06 07:11:19;;;;;;;0.25;0.25;;;14.20;90.40;;;;;;5096172;28;20048;-76
2024/04/06 07:13:44;;;;;;;0.20;0.20;;;14.40;90.40;;;;;;5114760;28;20039;-76
2024/04/06 07:16:13;;;;;;;0.35;0.35;;;14.50;90.30;;;;;;5062618;28;20038;-76
2024/04/06 07:18:40;;;;;;;0.45;0.38;;;14.50;90.20;;;;;;5079455;28;20044;-76
2024/04/06 07:21:10;;;;;;;0.25;0.25;;;14.60;90.20;;;;;;5096033;28;20039;-76
2024/04/06 07:23:37;;;;;;;0.47;0.30;;;14.70;90.20;;;;;;5096145;28;20092;-76
2024/04/06 07:26:03;;;;;;;0.65;0.40;;;14.80;90.10;;;;;;5114251;28;20308;-76
2024/04/06 07:28:29;;;;;;;0.50;0.50;;;14.90;90.00;;;;;;5096550;28;20063;-77
2024/04/06 07:30:54;;;;;;;0.40;0.30;;;15.00;90.00;;;;;;5078708;28;20085;-78
2024/04/06 07:33:20;;;;;;;0.88;0.50;;;15.10;89.90;;;;;;5114247;28;20080;-76
2024/04/06 07:35:48;;;;;;;1.50;0.63;;;15.10;89.70;;;;;;5114712;28;20039;-76
2024/04/06 07:38:14;;;;;;;0.80;0.40;;;15.20;89.60;;;;;;5095560;28;20047;-76
2024/04/06 07:40:40;;;;;;;0.50;0.50;;;15.30;89.60;;;;;;5095825;28;20047;-77
2024/04/06 07:43:06;;;;;;;0.50;0.50;;;15.40;89.40;;;;;;5095836;28;20091;-77
2024/04/06 07:45:31;;;;;;;1.20;0.60;;;15.50;89.30;;;;;;5095638;28;20130;-77
2024/04/06 07:47:57;;;;;;;0.47;0.40;;;15.60;89.20;;;;;;5113718;28;20139;-76
2024/04/06 07:50:23;;;;;;;0.55;0.40;;;15.70;89.00;;;;;;5095607;28;20130;-76
2024/04/06 07:52:49;;;;;;;0.90;0.60;;;15.70;88.90;;;;;;5114154;28;20125;-76
2024/04/06 07:55:15;;;;;;;0.52;0.47;;;15.80;88.80;;;;;;5095657;28;20067;-77
2024/04/06 07:57:43;;;;;;;0.43;0.40;;;15.90;88.70;;;;;;5078477;28;20049;-77
2024/04/06 08:00:10;;;;;;;0.65;0.60;;;16.00;88.60;;;;;;5095261;28;20130;-76
2024/04/06 08:02:36;;;;;;;0.70;0.50;;;16.20;88.40;;;;;;5078777;28;20039;-77
2024/04/06 08:05:02;;;;;;;0.60;0.50;;;16.30;88.20;;;;;;5095438;28;20123;-76
2024/04/06 08:07:28;;;;;;;0.90;0.50;;;16.50;88.00;;;;;;5078763;28;20061;-77
2024/04/06 08:09:58;;;;;;;1.30;0.40;;;16.60;87.80;;;;;;5095081;28;20426;-76
2024/04/06 08:12:25;;;;;;;1.05;0.63;;;16.80;87.60;;;;;;5114032;28;20481;-75
2024/04/06 08:14:51;;;;;;;0.40;0.40;;;16.90;87.40;;;;;;5078434;28;20039;-75
2024/04/06 08:17:17;;;;;;;0.40;0.40;;;17.10;87.10;;;;;;5113517;28;20096;-75
2024/04/06 08:19:42;;;;;;;0.60;0.50;;;17.30;86.80;;;;;;5095201;28;20100;-75
2024/04/06 08:22:08;;;;;;;0.47;0.47;;;17.40;86.70;;;;;;5113653;28;20389;-75
2024/04/06 08:24:34;;;;;;;0.85;0.47;;;17.60;86.50;;;;;;5114028;28;20031;-75
2024/04/06 08:27:00;;;;;;;1.15;0.60;;;17.70;86.40;;;;;;5113291;28;20125;-75
2024/04/06 08:29:26;;;;;;;1.52;0.60;;;17.90;86.20;;;;;;5113731;28;20035;-76
2024/04/06 08:31:51;;;;;;;0.50;0.50;;;18.00;85.90;;;;;;5095603;28;20040;-75
2024/04/06 08:34:17;;;;;;;0.85;0.65;;;18.20;85.80;;;;;;5095177;28;20088;-76
2024/04/06 08:36:43;;;;;;;1.48;0.60;;;18.20;85.50;;;;;;5094947;28;20122;-76
2024/04/06 08:39:08;;;;;;;1.30;0.60;;;18.40;85.30;;;;;;5095556;28;20068;-75
2024/04/06 08:41:35;;;;;;;0.60;0.60;;;18.50;85.30;;;;;;5095986;28;20427;-77
2024/04/06 08:44:02;;;;;;;0.65;0.60;;;18.60;85.10;;;;;;5096148;28;20056;-76
2024/04/06 08:46:28;;;;;;;0.45;0.45;;;18.80;85.00;;;;;;5113344;28;20032;-78
2024/04/06 08:48:54;;;;;;;0.93;0.60;;;18.90;84.70;;;;;;5113893;28;20050;-75
2024/04/06 08:51:23;;;;;;;0.52;0.52;;;19.00;84.60;;;;;;5113463;28;20039;-77
2024/04/06 08:53:48;;;;;;;0.45;0.45;;;19.10;84.60;;;;;;5095193;28;20035;-76
2024/04/06 08:56:15;;;;;;;0.43;0.40;;;19.20;84.50;;;;;;5060939;28;20047;-76
2024/04/06 08:58:42;;;;;;;0.73;0.55;;;19.30;84.30;;;;;;5112752;28;20075;-76
2024/04/06 09:01:07;;;;;;;0.55;0.55;;;19.40;84.30;;;;;;5077735;28;20031;-77
2024/04/06 09:03:33;;;;;;;1.08;0.70;;;19.50;84.20;;;;;;5112952;28;20047;-77
2024/04/06 09:05:59;;;;;;;1.42;0.70;;;19.60;84.10;;;;;;5113305;28;20377;-77
2024/04/06 09:08:25;;;;;;;0.85;0.70;;;19.70;83.70;;;;;;5077943;28;20401;-78
2024/04/06 09:10:59;;;;;;;0.47;0.43;;;19.80;83.70;;;;;;5078258;28;20028;-78
2024/04/06 09:13:25;;;;;;;0.68;0.60;;;19.80;83.60;;;;;;5113044;28;20036;-75
2024/04/06 09:15:51;;;;;;;0.82;0.52;;;19.90;83.80;;;;;;5112478;28;20031;-75
2024/04/06 09:18:17;;;;;;;0.82;0.52;;;19.90;83.60;;;;;;5094661;28;20039;-76
2024/04/06 09:20:51;;;;;;;0.82;0.65;;;20.00;83.50;;;;;;5094836;28;20035;-76
2024/04/06 09:23:17;;;;;;;0.75;0.55;;;20.10;83.40;;;;;;5092549;28;20092;-75
2024/04/06 09:25:43;;;;;;;0.57;0.57;;;20.10;83.40;;;;;;5113602;28;20031;-76
2024/04/06 09:28:10;;;;;;;1.42;0.77;;;20.20;83.20;;;;;;5078012;28;20118;-76
2024/04/06 09:30:44;;;;;;;1.02;0.70;;;20.30;83.10;;;;;;5113488;28;20417;-76
2024/04/06 09:33:11;;;;;;;1.55;0.70;;;20.40;82.80;;;;;;5102169;28;20065;-77
2024/04/06 09:35:39;;;;;;;0.57;0.50;;;20.60;82.60;;;;;;5097173;28;20501;-78
2024/04/06 09:38:10;;;;;;;1.08;0.60;;;20.70;82.40;;;;;;5115462;28;20035;-76
2024/04/06 09:40:36;;;;;;;0.93;0.52;;;20.70;82.20;;;;;;5078156;28;20130;-78
2024/04/06 09:43:03;;;;;;;0.63;0.60;;;20.70;82.10;;;;;;5114838;28;20135;-76
2024/04/06 09:45:31;;;;;;;0.47;0.45;;;20.60;82.10;;;;;;5096598;28;20035;-76
2024/04/06 09:47:59;;;;;;;1.98;0.80;;;20.70;82.10;;;;;;5115096;28;20040;-78
2024/04/06 09:50:25;;;;;;;0.80;0.55;;;20.70;82.20;;;;;;5112682;28;20405;-78
2024/04/06 09:52:51;;;;;;;0.50;0.50;;;20.60;82.20;;;;;;5095024;28;20051;-77
2024/04/06 09:55:16;;;;;;;0.95;0.55;;;20.70;82.30;;;;;;5094129;28;20050;-77
2024/04/06 09:57:44;;;;;;;1.13;0.70;;;20.70;82.20;;;;;;5093853;28;20046;-77
2024/04/06 10:00:13;;;;;;;0.60;0.60;;;20.70;82.10;;;;;;5112464;28;20396;-76
2024/04/06 10:02:39;;;;;;;0.50;0.50;;;20.70;82.00;;;;;;5112246;28;20074;-75
2024/04/06 10:05:05;;;;;;;0.60;0.43;;;20.80;82.00;;;;;;5112023;28;20505;-75
2024/04/06 10:07:33;;;;;;;0.98;0.60;;;20.80;81.80;;;;;;5093860;28;20039;-75
2024/04/06 10:10:01;;;;;;;0.60;0.60;;;20.90;81.80;;;;;;5112423;28;20096;-76
2024/04/06 10:12:45;;;;;;;0.63;0.63;;;21.00;81.60;;;;;;5094096;28;20131;-74
2024/04/06 10:15:15;;;;;;;0.50;0.50;;;21.00;82.10;;;;;;5111782;28;20036;-74
2024/04/06 10:17:46;;;;;;;0.65;0.43;;;21.00;81.50;;;;;;5093923;28;20051;-75
2024/04/06 10:20:13;;;;;;;0.50;0.50;;;21.00;81.40;;;;;;5112240;28;20036;-76
2024/04/06 10:22:51;;;;;;;0.95;0.68;;;21.10;81.40;;;;;;5077462;28;20036;-75
2024/04/06 10:25:18;;;;;;;0.77;0.52;;;21.10;81.30;;;;;;5093464;28;20070;-76
2024/04/06 10:27:44;;;;;;;0.57;0.50;;;21.10;81.40;;;;;;5077681;28;20036;-75
2024/04/06 10:30:10;;;;;;;1.13;0.60;;;21.20;81.30;;;;;;5113434;28;20031;-78
2024/04/06 10:32:36;;;;;;;0.50;0.50;;;21.20;81.20;;;;;;5117457;28;20035;-77
2024/04/06 10:35:03;;;;;;;0.73;0.70;;;21.30;81.10;;;;;;5064715;28;20055;-78
2024/04/06 10:37:29;;;;;;;0.40;0.40;;;21.30;80.90;;;;;;5084540;28;20046;-77
2024/04/06 10:39:56;;;;;;;1.27;0.60;;;21.40;80.60;;;;;;5100982;28;20035;-77
2024/04/06 10:42:25;;;;;;;1.05;0.57;;;21.50;80.40;;;;;;5099461;28;20119;-77
2024/04/06 10:44:52;;;;;;;1.05;0.50;;;21.60;80.10;;;;;;5082939;28;20044;-78
2024/04/06 10:47:18;;;;;;;0.80;0.70;;;21.70;80.10;;;;;;5118701;28;20036;-78
2024/04/06 10:49:47;;;;;;;0.40;0.40;;;21.60;80.00;;;;;;5118448;28;20181;-77
2024/04/06 10:52:14;;;;;;;0.50;0.50;;;21.70;80.00;;;;;;5118846;28;20031;-77
2024/04/06 10:54:40;;;;;;;1.05;0.60;;;21.70;80.00;;;;;;5119992;28;20040;-77
2024/04/06 10:57:06;;;;;;;0.50;0.50;;;21.70;80.00;;;;;;5119728;28;20127;-78
2024/04/06 10:59:31;;;;;;;0.93;0.55;;;21.80;79.90;;;;;;5100533;28;20044;-77
2024/04/06 11:01:57;;;;;;;1.17;0.52;;;21.90;79.70;;;;;;5098195;28;20496;-77
2024/04/06 11:04:24;;;;;;;0.80;0.60;;;22.00;79.50;;;;;;5116806;28;20039;-77
2024/04/06 11:06:51;;;;;;;0.60;0.60;;;22.00;79.30;;;;;;5123767;28;20055;-78
2024/04/06 11:09:17;;;;;;;0.82;0.70;;;22.00;79.20;;;;;;5106941;28;20048;-77
2024/04/06 11:11:43;;;;;;;1.13;0.70;;;22.10;79.20;;;;;;5086695;28;20012;-77
2024/04/06 11:14:08;;;;;;;0.75;0.50;;;22.10;79.00;;;;;;5107179;28;20043;-78
2024/04/06 11:16:36;;;;;;;0.40;0.40;;;22.10;78.90;;;;;;5119231;28;20064;-77
2024/04/06 11:19:02;;;;;;;1.98;0.60;;;22.10;78.80;;;;;;5096608;28;20134;-77
2024/04/06 11:21:27;;;;;;;0.65;0.57;;;22.20;78.70;;;;;;5100144;28;20059;-76
2024/04/06 11:23:53;;;;;;;1.15;0.60;;;22.20;78.50;;;;;;5116063;28;20032;-76
2024/04/06 11:26:21;;;;;;;0.52;0.52;;;22.30;78.20;;;;;;5116866;28;20063;-76
2024/04/06 11:28:46;;;;;;;0.85;0.60;;;22.40;78.00;;;;;;5116864;28;20055;-76
2024/04/06 11:31:12;;;;;;;0.43;0.40;;;22.40;77.80;;;;;;5098732;28;20044;-76
2024/04/06 11:33:38;;;;;;;0.73;0.50;;;22.40;77.70;;;;;;5064747;28;20039;-76
2024/04/06 11:36:04;;;;;;;0.63;0.63;;;22.50;77.70;;;;;;5098002;28;20100;-76
2024/04/06 11:38:30;;;;;;;2.00;0.52;;;22.60;77.70;;;;;;5116134;28;20046;-77
2024/04/06 11:40:57;;;;;;;0.68;0.68;;;22.60;77.50;;;;;;5117846;28;20028;-76
2024/04/06 11:43:23;;;;;;;0.77;0.60;;;22.60;77.20;;;;;;5097021;28;20131;-76
2024/04/06 11:45:49;;;;;;;1.38;0.60;;;22.70;77.10;;;;;;5097345;28;20071;-78
2024/04/06 11:48:15;;;;;;;1.17;0.50;;;22.70;77.00;;;;;;5081891;28;20385;-76
2024/04/06 11:50:41;;;;;;;0.63;0.60;;;22.80;76.90;;;;;;5095807;28;20489;-76
2024/04/06 11:53:09;;;;;;;1.00;0.63;;;22.80;76.90;;;;;;5097212;28;20039;-76
2024/04/06 11:55:36;;;;;;;1.02;0.70;;;22.90;76.80;;;;;;5116702;28;20050;-78
2024/04/06 11:58:02;;;;;;;0.65;0.65;;;23.00;76.60;;;;;;5115649;28;20039;-77
2024/04/06 12:00:29;;;;;;;1.75;0.77;;;23.00;76.20;;;;;;5115250;28;20044;-77
2024/04/06 12:02:55;;;;;;;1.27;0.70;;;23.10;76.10;;;;;;5113912;28;20126;-76
2024/04/06 12:05:21;;;;;;;0.50;0.50;;;23.30;76.10;;;;;;5095617;28;20048;-77
2024/04/06 12:07:47;;;;;;;1.30;0.60;;;23.30;76.10;;;;;;5095934;28;20149;-77
2024/04/06 12:10:13;;;;;;;0.52;0.52;;;23.40;75.80;;;;;;5116102;28;20093;-76
2024/04/06 12:12:39;;;;;;;0.68;0.43;;;23.40;75.50;;;;;;5113874;28;20101;-76
2024/04/06 12:15:05;;;;;;;0.77;0.47;;;23.50;75.40;;;;;;5098825;28;20035;-76
2024/04/06 12:17:31;;;;;;;0.98;0.60;;;23.60;75.30;;;;;;5120424;28;20048;-77
2024/04/06 12:19:57;;;;;;;0.90;0.70;;;23.70;75.10;;;;;;5102500;28;20040;-77
2024/04/06 12:22:23;;;;;;;0.57;0.50;;;23.80;74.70;;;;;;5121244;28;20065;-76
2024/04/06 12:24:50;;;;;;;1.48;0.65;;;23.80;74.30;;;;;;5115508;28;20059;-77
2024/04/06 12:27:17;;;;;;;0.77;0.70;;;24.00;74.10;;;;;;5118929;28;20039;-77
2024/04/06 12:29:44;;;;;;;0.50;0.50;;;24.10;73.80;;;;;;5082693;28;20385;-77
2024/04/06 12:32:10;;;;;;;0.38;0.38;;;24.10;73.50;;;;;;5097427;28;20039;-77
2024/04/06 12:34:37;;;;;;;0.60;0.60;;;24.20;73.10;;;;;;5079823;28;20043;-77
2024/04/06 12:37:09;;;;;;;0.80;0.70;;;24.20;72.70;;;;;;5082174;28;20493;-77
2024/04/06 12:39:35;;;;;;;0.57;0.57;;;24.20;72.40;;;;;;5096160;28;20054;-76
2024/04/06 12:42:03;;;;;;;0.55;0.40;;;24.20;72.50;;;;;;5099838;28;20065;-77
2024/04/06 12:44:29;;;;;;;0.55;0.40;;;24.20;72.40;;;;;;5100101;28;20036;-76
2024/04/06 12:46:54;;;;;;;0.68;0.60;;;24.10;72.40;;;;;;5113572;28;20035;-76